Time;durP1;ratioP1;P1;durP2;ratioP2;P2;SDS_P1;SDS_P2;PMS_P1;PMS_P2;Temp;Humidity;BMP_temperature;BMP_pressure;BME280_temperature;BME280_humidity;BME280_pressure;Samples;Min_cycle;Max_cycle;Signal;HPM_P1;HPM_P2
2022/03/28 00:02:14;;;;;;;11.70;2.38;;;;;;;;;;4967399;28;20054;-61
2022/03/28 00:04:41;;;;;;;10.30;2.03;;;;;;;;;;5051539;28;20082;-59
2022/03/28 00:07:07;;;;;;;8.77;1.90;;;;;;;;;;4971009;28;20098;-60
2022/03/28 00:09:34;;;;;;;8.25;1.70;;;;;;;;;;4944841;29;20066;-59
2022/03/28 00:12:00;;;;;;;15.15;2.78;;;;;;;;;;4955517;28;20059;-60
2022/03/28 00:14:28;;;;;;;12.60;2.00;;;;;;;;;;4983736;28;20069;-64
2022/03/28 00:16:56;;;;;;;6.93;1.73;;;;;;;;;;4961251;28;20116;-59
2022/03/28 00:19:23;;;;;;;10.50;1.90;;;;;;;;;;4968903;28;20135;-59
2022/03/28 00:21:50;;;;;;;11.80;1.88;;;;;;;;;;5016953;28;20078;-62
2022/03/28 00:24:16;;;;;;;11.40;2.30;;;;;;;;;;4956218;28;20062;-65
2022/03/28 00:26:43;;;;;;;20.73;2.38;;;;;;;;;;4981418;28;20050;-61
2022/03/28 00:29:11;;;;;;;8.43;2.00;;;;;;;;;;4966499;28;20454;-62
2022/03/28 00:31:39;;;;;;;15.88;2.88;;;;;;;;;;4965998;28;20058;-66
2022/03/28 00:34:06;;;;;;;16.08;2.50;;;;;;;;;;4993989;28;20054;-62
2022/03/28 00:36:33;;;;;;;11.45;1.88;;;;;;;;;;4968159;28;20050;-65
2022/03/28 00:38:59;;;;;;;9.35;1.83;;;;;;;;;;4969292;28;20059;-60
2022/03/28 00:41:26;;;;;;;10.20;2.10;;;;;;;;;;4964894;28;20055;-60
2022/03/28 00:43:54;;;;;;;13.45;2.58;;;;;;;;;;4960896;28;20078;-61
2022/03/28 00:46:21;;;;;;;10.30;1.90;;;;;;;;;;4947674;28;20054;-59
2022/03/28 00:48:53;;;;;;;7.95;1.95;;;;;;;;;;4940525;28;20082;-63
2022/03/28 00:51:20;;;;;;;9.43;2.22;;;;;;;;;;4959172;28;20042;-61
2022/03/28 00:53:47;;;;;;;10.55;1.67;;;;;;;;;;4974678;28;20114;-58
2022/03/28 00:56:13;;;;;;;11.52;1.90;;;;;;;;;;4948646;28;20055;-61
2022/03/28 00:58:40;;;;;;;7.35;1.77;;;;;;;;;;4942399;28;20059;-61
2022/03/28 01:01:09;;;;;;;6.60;1.77;;;;;;;;;;4948563;28;20051;-59
2022/03/28 01:03:35;;;;;;;;;;;;;;;;;;4961125;28;20058;-60
2022/03/28 01:06:03;;;;;;;6.03;1.60;;;;;;;;;;4989799;28;19927;-60
2022/03/28 01:08:31;;;;;;;9.73;1.88;;;;;;;;;;5002101;28;20059;-61
2022/03/28 01:11:00;;;;;;;7.63;1.63;;;;;;;;;;5015986;28;20068;-61
2022/03/28 01:13:27;;;;;;;8.13;1.80;;;;;;;;;;4973041;28;20069;-61
2022/03/28 01:15:53;;;;;;;9.05;2.08;;;;;;;;;;4971300;28;20067;-58
2022/03/28 01:18:19;;;;;;;6.68;1.55;;;;;;;;;;4977935;28;20050;-61
2022/03/28 01:20:45;;;;;;;11.07;1.65;;;;;;;;;;4952511;28;20152;-61
2022/03/28 01:23:13;;;;;;;9.93;2.00;;;;;;;;;;5022355;28;20064;-63
2022/03/28 01:25:40;;;;;;;13.25;2.13;;;;;;;;;;4975397;28;20059;-60
2022/03/28 01:28:07;;;;;;;8.02;1.90;;;;;;;;;;4974297;28;20056;-60
2022/03/28 01:30:34;;;;;;;8.15;1.90;;;;;;;;;;4985590;28;20067;-58
2022/03/28 01:33:01;;;;;;;13.65;2.13;;;;;;;;;;4968293;28;20058;-59
2022/03/28 01:35:28;;;;;;;11.85;2.22;;;;;;;;;;4972382;28;20093;-59
2022/03/28 01:37:55;;;;;;;9.88;2.08;;;;;;;;;;4955700;28;20060;-62
2022/03/28 01:40:23;;;;;;;10.13;1.80;;;;;;;;;;5017364;28;20053;-60
2022/03/28 01:42:50;;;;;;;6.85;1.90;;;;;;;;;;4984235;28;20108;-63
2022/03/28 01:45:18;;;;;;;15.63;1.92;;;;;;;;;;4983382;28;20048;-58
2022/03/28 01:47:45;;;;;;;13.32;2.03;;;;;;;;;;4973019;28;20053;-60
2022/03/28 01:50:11;;;;;;;8.70;1.85;;;;;;;;;;4979511;28;20098;-61
2022/03/28 01:52:38;;;;;;;8.00;2.17;;;;;;;;;;4994925;28;20056;-63
2022/03/28 01:55:05;;;;;;;8.18;1.48;;;;;;;;;;4969247;28;20093;-59
2022/03/28 01:57:33;;;;;;;14.88;1.95;;;;;;;;;;5000671;28;20142;-60
2022/03/28 02:00:00;;;;;;;8.27;1.60;;;;;;;;;;5002589;28;20139;-58
2022/03/28 02:02:27;;;;;;;13.27;2.35;;;;;;;;;;4989794;28;20104;-60
2022/03/28 02:04:54;;;;;;;11.18;1.65;;;;;;;;;;5048117;28;20126;-61
2022/03/28 02:07:21;;;;;;;12.23;2.42;;;;;;;;;;5040692;28;20052;-59
2022/03/28 02:09:47;;;;;;;11.57;1.90;;;;;;;;;;5068744;28;20052;-61
2022/03/28 02:12:14;;;;;;;7.60;1.58;;;;;;;;;;5078045;28;21128;-61
2022/03/28 02:14:42;;;;;;;12.55;2.00;;;;;;;;;;4960256;28;20142;-66
2022/03/28 02:17:08;;;;;;;9.33;1.70;;;;;;;;;;4983278;28;20068;-59
2022/03/28 02:19:35;;;;;;;8.60;1.85;;;;;;;;;;4969131;28;20055;-60
2022/03/28 02:22:02;;;;;;;10.98;2.10;;;;;;;;;;4964164;28;20051;-59
2022/03/28 02:24:28;;;;;;;10.90;1.98;;;;;;;;;;4962295;28;20059;-58
2022/03/28 02:26:55;;;;;;;11.73;2.03;;;;;;;;;;5037492;28;20058;-58
2022/03/28 02:29:22;;;;;;;12.70;2.53;;;;;;;;;;4959806;28;20199;-58
2022/03/28 02:31:50;;;;;;;9.82;1.77;;;;;;;;;;4950696;28;20055;-59
2022/03/28 02:34:16;;;;;;;13.75;2.47;;;;;;;;;;4959940;28;20051;-58
2022/03/28 02:36:43;;;;;;;14.00;1.98;;;;;;;;;;5029756;28;20053;-64
2022/03/28 02:39:10;;;;;;;6.50;1.75;;;;;;;;;;4962312;28;20092;-61
2022/03/28 02:41:37;;;;;;;9.00;1.77;;;;;;;;;;4941234;29;20138;-60
2022/03/28 02:44:04;;;;;;;12.02;1.65;;;;;;;;;;4944829;28;20056;-60
2022/03/28 02:46:30;;;;;;;5.40;1.60;;;;;;;;;;4959199;28;20229;-60
2022/03/28 02:48:58;;;;;;;7.50;2.10;;;;;;;;;;4965963;28;20058;-58
2022/03/28 02:51:25;;;;;;;6.68;1.90;;;;;;;;;;4963206;28;20054;-67
2022/03/28 02:53:51;;;;;;;12.57;1.95;;;;;;;;;;4970258;28;20096;-64
2022/03/28 02:56:18;;;;;;;12.90;2.33;;;;;;;;;;4970507;28;20111;-65
2022/03/28 02:58:45;;;;;;;10.38;1.92;;;;;;;;;;4951307;28;20054;-61
2022/03/28 03:01:11;;;;;;;7.03;1.52;;;;;;;;;;4947011;28;20058;-57
2022/03/28 03:03:38;;;;;;;8.60;1.77;;;;;;;;;;4964173;28;20067;-61
2022/03/28 03:06:06;;;;;;;8.50;1.90;;;;;;;;;;4995843;28;20047;-61
2022/03/28 03:08:32;;;;;;;10.98;1.65;;;;;;;;;;5031188;28;20107;-63
2022/03/28 03:10:59;;;;;;;9.80;2.30;;;;;;;;;;4978303;28;20060;-60
2022/03/28 03:13:26;;;;;;;10.40;1.48;;;;;;;;;;4952329;28;20055;-58
2022/03/28 03:15:52;;;;;;;9.73;1.75;;;;;;;;;;4967670;28;20058;-60
2022/03/28 03:18:19;;;;;;;7.95;1.40;;;;;;;;;;5021688;28;20051;-58
2022/03/28 03:20:46;;;;;;;7.88;1.63;;;;;;;;;;4953383;28;20047;-58
2022/03/28 03:23:14;;;;;;;7.80;1.75;;;;;;;;;;4960686;28;20062;-61
2022/03/28 03:25:40;;;;;;;8.15;2.05;;;;;;;;;;4950301;28;20065;-57
2022/03/28 03:28:07;;;;;;;6.47;1.52;;;;;;;;;;4947749;28;20055;-63
2022/03/28 03:30:35;;;;;;;12.43;1.67;;;;;;;;;;4952142;28;20054;-63
2022/03/28 03:33:01;;;;;;;5.37;1.80;;;;;;;;;;4951064;28;20050;-59
2022/03/28 03:35:28;;;;;;;7.68;1.80;;;;;;;;;;5029565;28;20379;-65
2022/03/28 03:37:54;;;;;;;11.98;2.20;;;;;;;;;;5049792;28;20048;-60
2022/03/28 03:40:23;;;;;;;6.18;1.38;;;;;;;;;;5011458;28;20047;-58
2022/03/28 03:42:49;;;;;;;9.57;1.70;;;;;;;;;;5057453;28;20121;-65
2022/03/28 03:45:16;;;;;;;7.85;1.52;;;;;;;;;;5054310;28;20040;-62
2022/03/28 03:47:43;;;;;;;9.65;1.73;;;;;;;;;;4975979;28;20046;-60
2022/03/28 03:50:11;;;;;;;10.25;2.10;;;;;;;;;;4947496;28;20064;-60
2022/03/28 03:52:38;;;;;;;10.27;2.15;;;;;;;;;;5011601;28;20058;-65
2022/03/28 03:55:06;;;;;;;5.50;1.88;;;;;;;;;;4963018;28;20055;-64
2022/03/28 03:57:32;;;;;;;;;;;;;;;;;;4958508;28;20055;-61
2022/03/28 04:00:01;;;;;;;4.88;1.80;;;;;;;;;;4966593;28;19926;-58
2022/03/28 04:02:27;;;;;;;16.88;3.22;;;;;;;;;;4946602;28;20058;-58
2022/03/28 04:04:54;;;;;;;9.45;2.83;;;;;;;;;;4948630;28;20059;-60
2022/03/28 04:07:20;;;;;;;8.98;2.15;;;;;;;;;;4988404;28;20078;-60
2022/03/28 04:09:47;;;;;;;7.47;2.22;;;;;;;;;;4984706;28;20052;-63
2022/03/28 04:12:14;;;;;;;9.10;1.88;;;;;;;;;;4948483;28;20066;-58
2022/03/28 04:14:44;;;;;;;6.63;1.67;;;;;;;;;;5021578;28;20138;-62
2022/03/28 04:17:12;;;;;;;6.43;2.03;;;;;;;;;;4949719;28;20061;-61
2022/03/28 04:19:38;;;;;;;10.88;2.00;;;;;;;;;;4945780;28;20185;-60
2022/03/28 04:22:05;;;;;;;9.00;2.13;;;;;;;;;;5025241;28;20069;-64
2022/03/28 04:24:32;;;;;;;7.32;1.92;;;;;;;;;;4965182;28;20079;-59
2022/03/28 04:26:58;;;;;;;10.38;1.85;;;;;;;;;;4966290;28;20104;-59
2022/03/28 04:29:26;;;;;;;12.93;2.60;;;;;;;;;;4948954;28;20046;-59
2022/03/28 04:31:53;;;;;;;9.25;2.22;;;;;;;;;;4985073;28;20077;-63
2022/03/28 04:34:24;;;;;;;6.20;1.95;;;;;;;;;;4930012;29;20066;-64
2022/03/28 04:36:50;;;;;;;11.20;2.08;;;;;;;;;;4938548;28;20064;-60
2022/03/28 04:39:18;;;;;;;11.20;2.47;;;;;;;;;;4973966;28;20134;-61
2022/03/28 04:41:44;;;;;;;7.78;1.98;;;;;;;;;;4949539;28;20059;-60
2022/03/28 04:44:11;;;;;;;10.45;1.98;;;;;;;;;;4950502;28;20065;-63
2022/03/28 04:46:38;;;;;;;10.70;2.28;;;;;;;;;;4949748;28;20058;-59
2022/03/28 04:49:05;;;;;;;8.60;2.00;;;;;;;;;;4966395;28;20052;-59
2022/03/28 04:51:33;;;;;;;7.97;1.88;;;;;;;;;;4965152;28;20059;-63
2022/03/28 04:53:59;;;;;;;5.07;1.65;;;;;;;;;;4947566;28;20069;-60
2022/03/28 04:56:26;;;;;;;7.68;1.98;;;;;;;;;;4962394;28;20051;-59
2022/03/28 04:58:53;;;;;;;12.02;2.28;;;;;;;;;;4948542;28;20059;-63
2022/03/28 05:01:20;;;;;;;11.00;2.70;;;;;;;;;;4947584;28;20082;-61
2022/03/28 05:03:47;;;;;;;11.63;3.10;;;;;;;;;;4951458;28;20086;-60
2022/03/28 05:06:13;;;;;;;11.57;2.38;;;;;;;;;;4964595;28;20066;-61
2022/03/28 05:08:41;;;;;;;7.30;2.38;;;;;;;;;;4933308;29;20062;-59
2022/03/28 05:11:08;;;;;;;8.38;2.13;;;;;;;;;;4934586;28;20058;-63
2022/03/28 05:13:34;;;;;;;11.80;2.33;;;;;;;;;;4950482;28;20058;-62
2022/03/28 05:16:01;;;;;;;19.73;3.20;;;;;;;;;;4968489;28;20055;-64
2022/03/28 05:18:27;;;;;;;9.20;2.25;;;;;;;;;;4980295;28;20055;-62
2022/03/28 05:20:55;;;;;;;7.30;2.10;;;;;;;;;;4944326;29;20163;-61
2022/03/28 05:23:21;;;;;;;8.00;2.17;;;;;;;;;;4946479;28;20145;-59
2022/03/28 05:25:52;;;;;;;7.15;1.95;;;;;;;;;;4965668;28;20134;-64
2022/03/28 05:28:18;;;;;;;8.30;2.38;;;;;;;;;;4934031;28;20074;-64
2022/03/28 05:30:48;;;;;;;6.85;2.15;;;;;;;;;;4983151;28;20073;-58
2022/03/28 05:33:15;;;;;;;7.53;2.15;;;;;;;;;;4963629;28;20061;-60
2022/03/28 05:35:43;;;;;;;9.05;2.63;;;;;;;;;;4985202;28;20094;-58
2022/03/28 05:38:09;;;;;;;7.90;2.17;;;;;;;;;;4969308;28;20050;-58
2022/03/28 05:40:39;;;;;;;9.00;2.35;;;;;;;;;;4965344;28;20058;-62
2022/03/28 05:43:08;;;;;;;8.30;2.00;;;;;;;;;;4968041;28;20089;-60
2022/03/28 05:45:35;;;;;;;6.22;2.25;;;;;;;;;;5017138;28;20057;-60
2022/03/28 05:48:02;;;;;;;11.85;2.30;;;;;;;;;;5011546;28;20066;-60
2022/03/28 05:50:28;;;;;;;5.35;1.92;;;;;;;;;;4991250;28;20049;-60
2022/03/28 05:52:55;;;;;;;8.60;2.40;;;;;;;;;;5002660;28;20064;-59
2022/03/28 05:57:13;;;;;;;18.92;4.75;;;;;;;;;;5104251;27;20191;-60
2022/03/28 05:59:40;;;;;;;13.40;4.80;;;;;;;;;;5079072;28;20555;-59
2022/03/28 06:02:07;;;;;;;18.70;4.65;;;;;;;;;;5079606;28;20063;-62
2022/03/28 06:04:36;;;;;;;11.05;4.60;;;;;;;;;;5075524;28;20066;-58
2022/03/28 06:07:03;;;;;;;19.80;4.82;;;;;;;;;;5082145;28;20060;-59
2022/03/28 06:09:32;;;;;;;14.95;4.30;;;;;;;;;;5079432;28;20126;-60
2022/03/28 06:11:59;;;;;;;11.30;3.88;;;;;;;;;;5082290;28;20056;-59
2022/03/28 06:14:27;;;;;;;10.55;3.42;;;;;;;;;;5088163;28;20276;-59
2022/03/28 06:16:53;;;;;;;13.13;3.90;;;;;;;;;;5093913;28;20051;-60
2022/03/28 06:19:20;;;;;;;14.40;3.90;;;;;;;;;;5071627;28;20298;-60
2022/03/28 06:21:46;;;;;;;12.93;4.15;;;;;;;;;;5079026;28;20108;-62
2022/03/28 06:24:13;;;;;;;13.40;4.15;;;;;;;;;;5087704;28;20174;-60
2022/03/28 06:26:39;;;;;;;13.85;4.45;;;;;;;;;;5083404;28;20056;-58
2022/03/28 06:29:09;;;;;;;12.23;3.90;;;;;;;;;;5087321;28;20055;-61
2022/03/28 06:31:37;;;;;;;12.50;3.83;;;;;;;;;;5083739;28;20048;-58
2022/03/28 06:34:04;;;;;;;16.33;3.97;;;;;;;;;;5086896;28;20044;-58
2022/03/28 06:36:30;;;;;;;10.63;3.55;;;;;;;;;;5079639;28;20066;-58
2022/03/28 06:38:57;;;;;;;14.02;4.70;;;;;;;;;;5084079;28;20060;-58
2022/03/28 06:41:24;;;;;;;9.32;3.70;;;;;;;;;;5082665;28;20160;-64
2022/03/28 06:43:51;;;;;;;12.10;3.60;;;;;;;;;;5104437;28;20105;-59
2022/03/28 06:46:17;;;;;;;10.75;4.07;;;;;;;;;;5083499;28;20055;-59
2022/03/28 06:48:45;;;;;;;11.48;3.67;;;;;;;;;;5087428;28;20052;-61
2022/03/28 06:51:12;;;;;;;9.60;3.50;;;;;;;;;;5082169;28;20055;-61
2022/03/28 06:53:38;;;;;;;14.10;3.75;;;;;;;;;;5087501;28;20056;-62
2022/03/28 06:56:05;;;;;;;10.40;3.58;;;;;;;;;;5103919;28;20133;-59
2022/03/28 06:58:32;;;;;;;9.38;3.80;;;;;;;;;;5082852;28;20056;-60
2022/03/28 07:01:01;;;;;;;11.38;3.42;;;;;;;;;;5099328;28;20056;-60
2022/03/28 07:03:28;;;;;;;11.40;3.78;;;;;;;;;;5078479;28;20045;-65
2022/03/28 07:05:57;;;;;;;12.35;3.95;;;;;;;;;;5046118;28;20178;-60
2022/03/28 07:08:26;;;;;;;;;;;;;;;;;;5043389;28;20048;-59
2022/03/28 07:10:54;;;;;;;8.93;3.15;;;;;;;;;;5050113;28;20390;-61
2022/03/28 07:13:22;;;;;;;8.85;3.22;;;;;;;;;;5075110;28;20473;-58
2022/03/28 07:15:49;;;;;;;7.50;2.97;;;;;;;;;;5055991;28;20079;-62
2022/03/28 07:18:16;;;;;;;10.73;3.70;;;;;;;;;;5082840;28;20068;-59
2022/03/28 07:20:43;;;;;;;9.80;3.60;;;;;;;;;;5053253;28;20048;-59
2022/03/28 07:23:12;;;;;;;13.73;4.63;;;;;;;;;;5049074;28;20053;-58
2022/03/28 07:25:41;;;;;;;11.05;3.70;;;;;;;;;;5052669;28;20052;-59
2022/03/28 07:28:09;;;;;;;12.27;4.57;;;;;;;;;;5049432;28;20060;-58
2022/03/28 07:30:36;;;;;;;12.90;4.25;;;;;;;;;;5053327;28;20052;-58
2022/03/28 07:33:03;;;;;;;9.43;3.42;;;;;;;;;;5049188;28;20102;-63
2022/03/28 07:35:29;;;;;;;8.73;3.05;;;;;;;;;;5052311;28;20151;-64
2022/03/28 07:37:56;;;;;;;12.30;4.05;;;;;;;;;;5049744;28;20089;-60
2022/03/28 07:40:24;;;;;;;24.85;3.90;;;;;;;;;;5032798;28;20053;-68
2022/03/28 07:42:51;;;;;;;;;;;;;;;;;;5033570;28;20049;-60
2022/03/28 07:45:18;;;;;;;8.18;2.95;;;;;;;;;;5053921;28;19981;-59
2022/03/28 07:47:45;;;;;;;10.82;3.85;;;;;;;;;;5072572;28;20131;-58
2022/03/28 07:50:12;;;;;;;9.93;3.38;;;;;;;;;;5068216;28;20055;-60
2022/03/28 07:52:38;;;;;;;9.93;3.92;;;;;;;;;;5071288;28;20151;-59
2022/03/28 07:55:06;;;;;;;9.02;3.35;;;;;;;;;;5065303;28;20060;-65
2022/03/28 07:57:34;;;;;;;13.32;3.60;;;;;;;;;;5051953;28;20083;-59
2022/03/28 08:00:02;;;;;;;9.13;3.15;;;;;;;;;;5059238;28;20109;-63
2022/03/28 08:02:29;;;;;;;10.57;4.25;;;;;;;;;;5072264;28;20048;-62
2022/03/28 08:04:56;;;;;;;11.18;4.05;;;;;;;;;;5070870;28;20101;-57
2022/03/28 08:07:22;;;;;;;11.13;3.75;;;;;;;;;;5071452;28;20146;-57
2022/03/28 08:09:49;;;;;;;13.52;4.72;;;;;;;;;;5067795;28;20059;-59
2022/03/28 08:12:16;;;;;;;9.00;3.42;;;;;;;;;;5072176;28;20059;-66
2022/03/28 08:14:44;;;;;;;11.85;4.07;;;;;;;;;;5068775;28;20036;-67
2022/03/28 08:17:10;;;;;;;12.13;4.70;;;;;;;;;;5072100;28;20102;-58
2022/03/28 08:19:37;;;;;;;15.20;4.60;;;;;;;;;;5066717;28;20052;-60
2022/03/28 08:22:04;;;;;;;15.18;5.00;;;;;;;;;;5088812;28;20044;-62
2022/03/28 08:24:31;;;;;;;11.55;4.22;;;;;;;;;;5071925;28;20521;-63
2022/03/28 08:26:57;;;;;;;13.85;4.05;;;;;;;;;;5066776;28;20166;-64
2022/03/28 08:29:24;;;;;;;14.00;4.93;;;;;;;;;;5071972;28;20048;-67
2022/03/28 08:31:53;;;;;;;11.70;4.22;;;;;;;;;;5067562;28;20052;-63
2022/03/28 08:34:20;;;;;;;10.30;4.40;;;;;;;;;;5071593;28;20059;-59
2022/03/28 08:36:46;;;;;;;11.05;4.10;;;;;;;;;;5068066;28;20056;-60
2022/03/28 08:39:13;;;;;;;8.63;3.63;;;;;;;;;;5068728;28;20044;-61
2022/03/28 08:41:40;;;;;;;13.95;4.35;;;;;;;;;;5069308;28;20097;-62
2022/03/28 08:44:07;;;;;;;10.40;3.72;;;;;;;;;;5071715;28;20056;-59
2022/03/28 08:46:38;;;;;;;10.52;3.67;;;;;;;;;;5053057;28;20060;-63
2022/03/28 08:49:06;;;;;;;18.92;5.68;;;;;;;;;;5050631;28;20044;-66
2022/03/28 08:51:33;;;;;;;19.25;6.65;;;;;;;;;;5062757;28;20051;-56
2022/03/28 08:53:59;;;;;;;21.50;6.88;;;;;;;;;;5056893;28;20056;-65
2022/03/28 08:56:26;;;;;;;13.05;4.32;;;;;;;;;;5042474;28;20061;-64
2022/03/28 08:58:52;;;;;;;14.18;5.30;;;;;;;;;;5046525;28;20071;-59
2022/03/28 09:01:20;;;;;;;17.63;6.18;;;;;;;;;;5032701;28;20052;-60
2022/03/28 09:03:47;;;;;;;10.63;4.75;;;;;;;;;;5045356;28;20049;-56
2022/03/28 09:06:31;;;;;;;24.52;6.10;;;;;;;;;;5055517;28;20063;-59
2022/03/28 09:09:13;;;;;;;14.45;5.93;;;;;;;;;;5070722;28;20199;-61
2022/03/28 09:11:39;;;;;;;17.30;6.07;;;;;;;;;;5048777;28;20098;-63
2022/03/28 09:14:06;;;;;;;16.88;5.75;;;;;;;;;;5046405;28;20130;-61
2022/03/28 09:16:34;;;;;;;14.20;5.35;;;;;;;;;;5051389;28;20044;-58
2022/03/28 09:19:02;;;;;;;12.32;4.45;;;;;;;;;;5039803;28;20052;-65
2022/03/28 09:21:29;;;;;;;15.32;5.35;;;;;;;;;;5049822;28;20060;-60
2022/03/28 09:23:57;;;;;;;14.65;5.57;;;;;;;;;;5056651;28;20060;-63
2022/03/28 09:26:26;;;;;;;19.90;6.30;;;;;;;;;;5066264;28;20110;-61
2022/03/28 09:28:54;;;;;;;12.90;4.78;;;;;;;;;;5064872;28;20064;-61
2022/03/28 09:31:26;;;;;;;16.20;5.25;;;;;;;;;;5058964;28;20091;-59
2022/03/28 09:33:53;;;;;;;15.52;6.07;;;;;;;;;;5065301;28;20063;-63
2022/03/28 09:36:33;;;;;;;18.73;5.70;;;;;;;;;;5055683;28;20052;-66
2022/03/28 09:39:02;;;;;;;13.75;6.28;;;;;;;;;;5065176;28;20056;-66
2022/03/28 09:41:29;;;;;;;13.95;4.82;;;;;;;;;;5055884;28;20064;-68
2022/03/28 09:43:55;;;;;;;11.63;4.20;;;;;;;;;;5064481;28;20053;-65
2022/03/28 09:46:25;;;;;;;11.65;5.45;;;;;;;;;;5061658;28;20056;-63
2022/03/28 09:48:53;;;;;;;13.18;5.53;;;;;;;;;;5060993;28;20615;-68
2022/03/28 09:51:21;;;;;;;15.07;5.63;;;;;;;;;;5064788;28;20081;-65
2022/03/28 09:53:48;;;;;;;9.85;4.25;;;;;;;;;;5055748;28;20049;-63
2022/03/28 09:56:16;;;;;;;14.85;5.20;;;;;;;;;;5066778;28;20060;-65
2022/03/28 09:58:46;;;;;;;12.63;5.38;;;;;;;;;;5056230;28;20052;-61
2022/03/28 10:01:17;;;;;;;10.93;4.55;;;;;;;;;;5065841;28;20056;-65
2022/03/28 10:03:45;;;;;;;24.58;5.90;;;;;;;;;;5060916;28;20117;-62
2022/03/28 10:06:11;;;;;;;11.18;4.68;;;;;;;;;;5063826;28;20053;-59
2022/03/28 10:08:38;;;;;;;17.05;6.93;;;;;;;;;;5064397;28;20141;-63
2022/03/28 10:11:05;;;;;;;13.57;5.10;;;;;;;;;;5059710;28;20067;-66
2022/03/28 10:13:34;;;;;;;15.27;5.88;;;;;;;;;;5065189;28;20144;-60
2022/03/28 10:16:02;;;;;;;26.08;7.35;;;;;;;;;;5047470;28;20557;-60
2022/03/28 10:18:29;;;;;;;16.42;6.53;;;;;;;;;;5056884;28;20041;-62
2022/03/28 10:20:56;;;;;;;17.58;7.03;;;;;;;;;;5049367;28;20586;-60
2022/03/28 10:23:24;;;;;;;18.13;6.60;;;;;;;;;;5058957;28;20056;-60
2022/03/28 10:25:53;;;;;;;17.33;6.20;;;;;;;;;;5060372;28;20053;-63
2022/03/28 10:28:20;;;;;;;18.02;6.32;;;;;;;;;;5065499;28;20083;-61
2022/03/28 10:31:07;;;;;;;21.30;7.10;;;;;;;;;;5061418;28;20052;-65
2022/03/28 10:33:34;;;;;;;16.00;6.57;;;;;;;;;;5066778;28;20130;-64
2022/03/28 10:36:02;;;;;;;18.67;7.43;;;;;;;;;;5076211;28;20493;-63
2022/03/28 10:38:28;;;;;;;17.73;6.47;;;;;;;;;;5080349;28;20068;-58
2022/03/28 10:40:57;;;;;;;17.23;6.47;;;;;;;;;;5060019;28;20055;-61
2022/03/28 10:43:25;;;;;;;14.23;6.88;;;;;;;;;;5083388;28;20044;-64
2022/03/28 10:45:55;;;;;;;19.75;7.68;;;;;;;;;;5068440;28;20049;-60
2022/03/28 10:48:34;;;;;;;16.35;6.15;;;;;;;;;;5084104;28;20135;-63
2022/03/28 10:51:04;;;;;;;15.77;6.70;;;;;;;;;;5069418;28;20070;-62
2022/03/28 10:53:33;;;;;;;17.17;7.20;;;;;;;;;;5065469;28;20129;-62
2022/03/28 10:56:01;;;;;;;17.08;6.30;;;;;;;;;;5069334;28;20223;-59
2022/03/28 10:58:28;;;;;;;19.42;6.72;;;;;;;;;;5064911;28;20110;-62
2022/03/28 11:01:14;;;;;;;22.65;7.57;;;;;;;;;;5067208;28;20063;-67
2022/03/28 11:03:43;;;;;;;18.88;7.03;;;;;;;;;;5080511;28;20075;-66
2022/03/28 11:06:10;;;;;;;14.93;6.47;;;;;;;;;;5068664;28;20067;-64
2022/03/28 11:08:37;;;;;;;22.83;7.18;;;;;;;;;;5065761;28;20091;-65
2022/03/28 11:11:14;;;;;;;25.17;7.55;;;;;;;;;;5084989;28;20102;-71
2022/03/28 11:13:40;;;;;;;20.13;8.32;;;;;;;;;;5062732;28;20049;-62
2022/03/28 11:16:17;;;;;;;16.48;7.20;;;;;;;;;;5068750;28;20126;-64
2022/03/28 11:18:45;;;;;;;20.30;7.35;;;;;;;;;;5070054;28;20555;-60
2022/03/28 11:21:12;;;;;;;15.85;6.80;;;;;;;;;;5062374;28;20049;-68
2022/03/28 11:23:39;;;;;;;22.88;9.07;;;;;;;;;;5048224;28;20126;-63
2022/03/28 11:26:06;;;;;;;30.52;10.65;;;;;;;;;;5060221;28;20056;-70
2022/03/28 11:28:34;;;;;;;26.95;11.07;;;;;;;;;;5056737;28;20058;-62
2022/03/28 11:31:03;;;;;;;26.05;9.95;;;;;;;;;;5073640;28;20048;-71
2022/03/28 11:33:40;;;;;;;17.95;6.40;;;;;;;;;;5092627;28;20044;-62
2022/03/28 11:36:09;;;;;;;27.70;9.27;;;;;;;;;;5059176;28;20056;-66
2022/03/28 11:38:37;;;;;;;33.05;10.93;;;;;;;;;;5060840;28;20502;-66
2022/03/28 11:41:04;;;;;;;33.15;9.73;;;;;;;;;;5064581;28;20056;-62
2022/03/28 11:43:32;;;;;;;30.33;9.13;;;;;;;;;;5053901;28;22380;-60
2022/03/28 11:45:59;;;;;;;22.00;8.45;;;;;;;;;;5059946;28;20056;-62
2022/03/28 11:48:26;;;;;;;20.70;8.15;;;;;;;;;;5063559;28;20152;-60
2022/03/28 11:50:55;;;;;;;19.27;7.85;;;;;;;;;;5068869;28;20056;-62
2022/03/28 11:53:21;;;;;;;;;;;;;;;;;;5069067;28;20476;-64
2022/03/28 11:55:50;;;;;;;26.42;7.03;;;;;;;;;;5062832;28;19924;-67
2022/03/28 11:58:19;;;;;;;24.52;7.75;;;;;;;;;;5066288;28;20053;-64
2022/03/28 12:00:47;;;;;;;26.70;8.07;;;;;;;;;;5079963;28;20090;-71
2022/03/28 12:03:14;;;;;;;14.02;5.88;;;;;;;;;;5066750;28;20043;-70
2022/03/28 12:05:43;;;;;;;32.15;9.82;;;;;;;;;;5063027;28;20075;-67
2022/03/28 12:08:10;;;;;;;22.77;7.13;;;;;;;;;;5071859;28;20141;-65
2022/03/28 12:10:37;;;;;;;27.88;7.25;;;;;;;;;;5074072;28;20119;-63
2022/03/28 12:13:06;;;;;;;23.75;7.05;;;;;;;;;;5074133;28;20083;-68
2022/03/28 12:15:34;;;;;;;18.60;6.45;;;;;;;;;;5082804;28;20048;-64
2022/03/28 12:18:02;;;;;;;15.45;5.47;;;;;;;;;;5085753;28;20048;-67
2022/03/28 12:20:29;;;;;;;21.48;7.07;;;;;;;;;;5068135;28;20059;-65
2022/03/28 12:22:55;;;;;;;23.77;7.10;;;;;;;;;;5074961;28;20056;-62
2022/03/28 12:25:23;;;;;;;25.75;7.47;;;;;;;;;;5068583;28;20131;-58
2022/03/28 12:27:51;;;;;;;25.92;6.80;;;;;;;;;;5075826;28;20059;-62
2022/03/28 12:30:20;;;;;;;24.55;6.35;;;;;;;;;;5071053;28;20056;-61
2022/03/28 12:32:47;;;;;;;22.10;5.40;;;;;;;;;;5078838;28;20060;-63
2022/03/28 12:35:13;;;;;;;21.45;5.53;;;;;;;;;;5072783;28;20059;-62
2022/03/28 12:37:40;;;;;;;14.38;5.88;;;;;;;;;;5072413;28;20094;-61
2022/03/28 12:40:07;;;;;;;16.45;5.50;;;;;;;;;;5073588;28;20052;-62
2022/03/28 12:42:34;;;;;;;21.05;7.22;;;;;;;;;;5071605;28;20109;-67
2022/03/28 12:45:00;;;;;;;22.63;6.97;;;;;;;;;;5076571;28;20052;-70
2022/03/28 12:47:29;;;;;;;18.73;5.95;;;;;;;;;;5069780;28;20048;-62
2022/03/28 12:49:57;;;;;;;18.50;5.25;;;;;;;;;;5074351;28;20067;-65
2022/03/28 12:52:24;;;;;;;21.30;5.03;;;;;;;;;;5071040;28;20056;-66
2022/03/28 12:54:54;;;;;;;20.58;5.65;;;;;;;;;;5075127;28;20055;-66
2022/03/28 12:57:27;;;;;;;19.85;5.25;;;;;;;;;;5072706;28;20143;-67
2022/03/28 12:59:54;;;;;;;22.33;5.22;;;;;;;;;;5072932;28;20052;-68
2022/03/28 13:02:21;;;;;;;17.75;4.78;;;;;;;;;;5071768;28;20055;-69
2022/03/28 13:04:50;;;;;;;21.92;4.90;;;;;;;;;;5075788;28;20066;-69
2022/03/28 13:07:20;;;;;;;23.02;5.30;;;;;;;;;;5071244;28;20087;-71
2022/03/28 13:09:57;;;;;;;16.08;4.65;;;;;;;;;;5075493;28;20133;-70
2022/03/28 13:12:32;;;;;;;23.90;4.65;;;;;;;;;;5067828;28;20044;-69
2022/03/28 13:14:59;;;;;;;23.33;5.15;;;;;;;;;;5095409;28;20086;-72
2022/03/28 13:17:26;;;;;;;21.73;4.43;;;;;;;;;;5075264;28;20056;-65
2022/03/28 13:20:00;;;;;;;15.70;4.00;;;;;;;;;;5069127;28;20135;-61
2022/03/28 13:22:27;;;;;;;16.10;4.50;;;;;;;;;;5073771;28;20056;-66
2022/03/28 13:25:06;;;;;;;21.05;4.82;;;;;;;;;;5072618;28;20042;-63
2022/03/28 13:30:17;;;;;;;9.10;3.58;;;;;;;;;;5091382;28;20078;-62
2022/03/28 13:32:44;;;;;;;21.40;4.32;;;;;;;;;;5071706;28;20083;-68
2022/03/28 13:35:13;;;;;;;17.23;4.75;;;;;;;;;;5073438;28;20064;-62
2022/03/28 13:37:40;;;;;;;15.63;4.30;;;;;;;;;;5070840;28;20059;-67
2022/03/28 13:40:08;;;;;;;13.98;4.28;;;;;;;;;;5074606;28;20055;-62
2022/03/28 13:42:34;;;;;;;19.05;4.43;;;;;;;;;;5074467;28;20055;-59
2022/03/28 13:45:01;;;;;;;14.85;4.10;;;;;;;;;;5069963;28;20055;-61
2022/03/28 13:47:27;;;;;;;12.52;3.55;;;;;;;;;;5072476;28;20113;-63
2022/03/28 13:49:54;;;;;;;21.70;4.47;;;;;;;;;;5067882;28;20056;-64
2022/03/28 13:52:22;;;;;;;15.45;4.75;;;;;;;;;;5074871;28;20062;-67
2022/03/28 13:54:48;;;;;;;17.42;4.10;;;;;;;;;;5082571;28;20065;-59
2022/03/28 13:57:15;;;;;;;17.20;4.03;;;;;;;;;;5076860;28;20055;-64
2022/03/28 13:59:41;;;;;;;12.10;3.35;;;;;;;;;;5068353;28;20055;-69
2022/03/28 14:02:08;;;;;;;20.35;4.05;;;;;;;;;;5077164;28;20124;-66
2022/03/28 14:04:36;;;;;;;16.63;3.88;;;;;;;;;;5072505;28;20056;-71
2022/03/28 14:07:03;;;;;;;11.75;2.83;;;;;;;;;;5076979;28;20055;-71
2022/03/28 14:09:32;;;;;;;12.77;3.30;;;;;;;;;;5068910;28;20047;-66
2022/03/28 14:11:58;;;;;;;22.33;4.43;;;;;;;;;;5075182;28;20056;-74
2022/03/28 14:14:25;;;;;;;19.52;4.38;;;;;;;;;;5087306;28;20129;-64
2022/03/28 14:16:52;;;;;;;21.75;3.90;;;;;;;;;;5074517;28;20044;-69
2022/03/28 14:19:18;;;;;;;18.65;3.42;;;;;;;;;;5072873;28;20063;-70
2022/03/28 14:21:45;;;;;;;12.77;3.45;;;;;;;;;;5071900;28;20055;-68
2022/03/28 14:24:12;;;;;;;16.70;3.45;;;;;;;;;;5079131;28;20055;-65
2022/03/28 14:26:40;;;;;;;22.05;4.35;;;;;;;;;;5072426;28;20067;-64
2022/03/28 14:29:06;;;;;;;15.25;3.45;;;;;;;;;;5075444;28;20056;-70
2022/03/28 14:31:33;;;;;;;13.50;2.97;;;;;;;;;;5072069;28;20074;-65
2022/03/28 14:33:59;;;;;;;12.85;3.05;;;;;;;;;;5075479;28;20048;-59
2022/03/28 14:36:26;;;;;;;12.82;2.72;;;;;;;;;;5074468;28;20059;-60
2022/03/28 14:38:53;;;;;;;18.55;4.22;;;;;;;;;;5075953;28;20055;-69
2022/03/28 14:41:19;;;;;;;7.85;2.35;;;;;;;;;;5072556;28;20055;-65
2022/03/28 14:43:48;;;;;;;10.00;2.85;;;;;;;;;;5081605;28;20060;-62